sensor_id;sensor_type;location;lat;lon;timestamp;temperature;humidity
65072;DHT22;51663;52.310;17.016;2023-05-07T00:00:58;27.90;30.10
65072;DHT22;51663;52.310;17.016;2023-05-07T00:04:10;27.20;30.40
65072;DHT22;51663;52.310;17.016;2023-05-07T00:08:44;27.50;30.50
65072;DHT22;51663;52.310;17.016;2023-05-07T00:12:20;27.80;30.00
65072;DHT22;51663;52.310;17.016;2023-05-07T00:21:08;27.90;29.90
65072;DHT22;51663;52.310;17.016;2023-05-07T00:24:22;27.80;29.50
65072;DHT22;51663;52.310;17.016;2023-05-07T00:27:50;27.40;30.10
65072;DHT22;51663;52.310;17.016;2023-05-07T00:30:52;27.40;30.00
65072;DHT22;51663;52.310;17.016;2023-05-07T00:34:20;27.10;30.20
65072;DHT22;51663;52.310;17.016;2023-05-07T00:38:54;26.60;31.50
65072;DHT22;51663;52.310;17.016;2023-05-07T00:42:30;26.80;30.80
65072;DHT22;51663;52.310;17.016;2023-05-07T00:46:03;26.60;31.10
65072;DHT22;51663;52.310;17.016;2023-05-07T00:50:19;26.70;31.00
65072;DHT22;51663;52.310;17.016;2023-05-07T00:54:34;27.00;30.20
65072;DHT22;51663;52.310;17.016;2023-05-07T00:57:57;27.20;30.00
65072;DHT22;51663;52.310;17.016;2023-05-07T01:01:37;27.30;30.10
65072;DHT22;51663;52.310;17.016;2023-05-07T01:05:15;27.70;29.70
65072;DHT22;51663;52.310;17.016;2023-05-07T01:09:07;27.00;30.30
65072;DHT22;51663;52.310;17.016;2023-05-07T01:12:10;26.60;30.80
65072;DHT22;51663;52.310;17.016;2023-05-07T01:15:29;25.90;31.50
65072;DHT22;51663;52.310;17.016;2023-05-07T01:18:34;26.00;32.10
65072;DHT22;51663;52.310;17.016;2023-05-07T01:31:10;27.40;29.90
65072;DHT22;51663;52.310;17.016;2023-05-07T01:35:04;26.70;30.10
65072;DHT22;51663;52.310;17.016;2023-05-07T01:39:17;27.10;30.50
65072;DHT22;51663;52.310;17.016;2023-05-07T01:43:38;27.50;29.70
65072;DHT22;51663;52.310;17.016;2023-05-07T01:52:29;27.40;29.50
65072;DHT22;51663;52.310;17.016;2023-05-07T02:00:33;27.80;29.30
65072;DHT22;51663;52.310;17.016;2023-05-07T02:04:25;27.40;29.50
65072;DHT22;51663;52.310;17.016;2023-05-07T02:08:06;27.30;29.50
65072;DHT22;51663;52.310;17.016;2023-05-07T02:11:50;27.90;29.10
65072;DHT22;51663;52.310;17.016;2023-05-07T02:15:59;27.50;29.20
65072;DHT22;51663;52.310;17.016;2023-05-07T02:20:07;27.70;29.30
65072;DHT22;51663;52.310;17.016;2023-05-07T02:23:56;27.40;29.30
65072;DHT22;51663;52.310;17.016;2023-05-07T02:31:45;27.50;29.40
65072;DHT22;51663;52.310;17.016;2023-05-07T02:35:54;27.20;29.60
65072;DHT22;51663;52.310;17.016;2023-05-07T02:39:57;27.00;30.00
65072;DHT22;51663;52.310;17.016;2023-05-07T02:43:48;27.20;29.60
65072;DHT22;51663;52.310;17.016;2023-05-07T02:56:02;27.80;29.50
65072;DHT22;51663;52.310;17.016;2023-05-07T02:59:25;28.10;29.00
65072;DHT22;51663;52.310;17.016;2023-05-07T03:03:50;28.10;28.80
65072;DHT22;51663;52.310;17.016;2023-05-07T03:08:16;27.90;29.00
65072;DHT22;51663;52.310;17.016;2023-05-07T03:25:44;28.90;28.10
65072;DHT22;51663;52.310;17.016;2023-05-07T03:29:54;28.80;28.10
65072;DHT22;51663;52.310;17.016;2023-05-07T03:34:21;29.10;27.90
65072;DHT22;51663;52.310;17.016;2023-05-07T03:38:42;29.10;28.00
65072;DHT22;51663;52.310;17.016;2023-05-07T03:42:41;29.00;28.20
65072;DHT22;51663;52.310;17.016;2023-05-07T03:46:56;29.10;27.90
65072;DHT22;51663;52.310;17.016;2023-05-07T03:58:59;28.20;28.80
65072;DHT22;51663;52.310;17.016;2023-05-07T04:03:01;28.70;28.50
65072;DHT22;51663;52.310;17.016;2023-05-07T04:07:20;28.90;28.00
65072;DHT22;51663;52.310;17.016;2023-05-07T04:11:25;28.90;28.30
65072;DHT22;51663;52.310;17.016;2023-05-07T04:23:58;28.60;28.40
65072;DHT22;51663;52.310;17.016;2023-05-07T04:33:13;28.40;29.10
65072;DHT22;51663;52.310;17.016;2023-05-07T04:36:33;28.90;28.80
65072;DHT22;51663;52.310;17.016;2023-05-07T04:40:15;28.80;28.50
65072;DHT22;51663;52.310;17.016;2023-05-07T04:44:30;29.10;28.70
65072;DHT22;51663;52.310;17.016;2023-05-07T04:48:43;29.50;28.30
65072;DHT22;51663;52.310;17.016;2023-05-07T04:51:51;30.60;28.00
65072;DHT22;51663;52.310;17.016;2023-05-07T04:55:11;31.90;26.90
65072;DHT22;51663;52.310;17.016;2023-05-07T05:03:50;31.40;26.40
65072;DHT22;51663;52.310;17.016;2023-05-07T05:07:12;31.40;26.20
65072;DHT22;51663;52.310;17.016;2023-05-07T05:10:38;31.40;26.10
65072;DHT22;51663;52.310;17.016;2023-05-07T05:14:58;30.30;26.30
65072;DHT22;51663;52.310;17.016;2023-05-07T05:23:49;31.20;26.50
65072;DHT22;51663;52.310;17.016;2023-05-07T05:27:55;32.00;26.40
65072;DHT22;51663;52.310;17.016;2023-05-07T05:32:04;32.20;25.50
65072;DHT22;51663;52.310;17.016;2023-05-07T05:35:49;32.30;25.10
65072;DHT22;51663;52.310;17.016;2023-05-07T05:39:02;31.70;25.40
65072;DHT22;51663;52.310;17.016;2023-05-07T05:42:24;31.80;25.90
65072;DHT22;51663;52.310;17.016;2023-05-07T05:45:44;32.30;25.70
65072;DHT22;51663;52.310;17.016;2023-05-07T05:54:10;32.60;24.80
65072;DHT22;51663;52.310;17.016;2023-05-07T05:57:56;31.80;25.10
65072;DHT22;51663;52.310;17.016;2023-05-07T06:01:24;32.20;25.30
65072;DHT22;51663;52.310;17.016;2023-05-07T06:05:26;31.00;25.90
65072;DHT22;51663;52.310;17.016;2023-05-07T06:18:29;31.70;25.60
65072;DHT22;51663;52.310;17.016;2023-05-07T06:21:47;31.90;25.60
65072;DHT22;51663;52.310;17.016;2023-05-07T06:30:46;32.20;25.10
65072;DHT22;51663;52.310;17.016;2023-05-07T06:39:24;32.40;24.40
65072;DHT22;51663;52.310;17.016;2023-05-07T06:42:55;33.20;24.90
65072;DHT22;51663;52.310;17.016;2023-05-07T06:48:04;32.50;24.40
65072;DHT22;51663;52.310;17.016;2023-05-07T06:56:52;32.10;24.60
65072;DHT22;51663;52.310;17.016;2023-05-07T07:00:21;31.10;25.40
65072;DHT22;51663;52.310;17.016;2023-05-07T07:12:04;30.90;25.20
65072;DHT22;51663;52.310;17.016;2023-05-07T07:15:07;30.10;26.40
65072;DHT22;51663;52.310;17.016;2023-05-07T07:18:10;30.80;26.10
65072;DHT22;51663;52.310;17.016;2023-05-07T07:26:06;31.60;25.80
65072;DHT22;51663;52.310;17.016;2023-05-07T07:34:50;32.00;26.10
65072;DHT22;51663;52.310;17.016;2023-05-07T07:38:01;32.10;24.80
65072;DHT22;51663;52.310;17.016;2023-05-07T07:41:03;31.50;25.00
65072;DHT22;51663;52.310;17.016;2023-05-07T07:44:33;31.70;24.90
65072;DHT22;51663;52.310;17.016;2023-05-07T07:54:24;30.10;26.40
65072;DHT22;51663;52.310;17.016;2023-05-07T07:58:17;29.90;27.00
65072;DHT22;51663;52.310;17.016;2023-05-07T08:01:48;29.60;26.90
65072;DHT22;51663;52.310;17.016;2023-05-07T08:06:24;30.30;26.40
65072;DHT22;51663;52.310;17.016;2023-05-07T08:10:19;30.60;25.90
65072;DHT22;51663;52.310;17.016;2023-05-07T08:13:23;30.60;26.10
65072;DHT22;51663;52.310;17.016;2023-05-07T08:16:37;29.90;25.90
65072;DHT22;51663;52.310;17.016;2023-05-07T08:19:43;29.50;26.80
65072;DHT22;51663;52.310;17.016;2023-05-07T08:22:52;29.10;27.60
65072;DHT22;51663;52.310;17.016;2023-05-07T08:26:40;29.40;27.20
65072;DHT22;51663;52.310;17.016;2023-05-07T08:30:39;29.60;27.40
65072;DHT22;51663;52.310;17.016;2023-05-07T08:35:25;29.60;27.40
65072;DHT22;51663;52.310;17.016;2023-05-07T08:38:28;29.90;26.90
65072;DHT22;51663;52.310;17.016;2023-05-07T08:41:51;29.90;27.00
65072;DHT22;51663;52.310;17.016;2023-05-07T08:50:27;29.70;26.70
65072;DHT22;51663;52.310;17.016;2023-05-07T08:54:09;29.70;26.80
65072;DHT22;51663;52.310;17.016;2023-05-07T08:57:39;29.10;27.10
65072;DHT22;51663;52.310;17.016;2023-05-07T09:05:35;29.30;27.00
65072;DHT22;51663;52.310;17.016;2023-05-07T09:08:39;29.20;27.60
65072;DHT22;51663;52.310;17.016;2023-05-07T09:17:05;29.80;27.30
65072;DHT22;51663;52.310;17.016;2023-05-07T09:20:08;29.60;27.60
65072;DHT22;51663;52.310;17.016;2023-05-07T09:23:14;30.20;26.90
65072;DHT22;51663;52.310;17.016;2023-05-07T09:26:17;30.60;26.50
65072;DHT22;51663;52.310;17.016;2023-05-07T09:29:20;30.70;26.20
65072;DHT22;51663;52.310;17.016;2023-05-07T09:32:22;29.80;26.60
65072;DHT22;51663;52.310;17.016;2023-05-07T09:35:35;29.50;26.80
65072;DHT22;51663;52.310;17.016;2023-05-07T09:38:37;29.80;26.40
65072;DHT22;51663;52.310;17.016;2023-05-07T09:41:44;29.20;27.00
65072;DHT22;51663;52.310;17.016;2023-05-07T09:44:47;29.50;27.10
65072;DHT22;51663;52.310;17.016;2023-05-07T09:47:54;29.80;26.90
65072;DHT22;51663;52.310;17.016;2023-05-07T09:50:58;29.50;26.90
65072;DHT22;51663;52.310;17.016;2023-05-07T09:54:17;29.10;27.10
65072;DHT22;51663;52.310;17.016;2023-05-07T09:57:19;29.30;27.20
65072;DHT22;51663;52.310;17.016;2023-05-07T10:00:22;29.00;27.30
65072;DHT22;51663;52.310;17.016;2023-05-07T10:03:54;29.20;27.00
65072;DHT22;51663;52.310;17.016;2023-05-07T10:10:37;29.10;27.60
65072;DHT22;51663;52.310;17.016;2023-05-07T10:13:48;29.90;26.70
65072;DHT22;51663;52.310;17.016;2023-05-07T10:18:03;30.10;26.80
65072;DHT22;51663;52.310;17.016;2023-05-07T10:21:49;30.50;26.20
65072;DHT22;51663;52.310;17.016;2023-05-07T10:25:32;30.70;26.40
65072;DHT22;51663;52.310;17.016;2023-05-07T10:32:48;30.50;26.60
65072;DHT22;51663;52.310;17.016;2023-05-07T10:36:10;30.80;26.10
65072;DHT22;51663;52.310;17.016;2023-05-07T10:39:38;30.40;26.20
65072;DHT22;51663;52.310;17.016;2023-05-07T10:43:37;31.00;25.90
65072;DHT22;51663;52.310;17.016;2023-05-07T10:47:24;31.00;25.60
65072;DHT22;51663;52.310;17.016;2023-05-07T10:51:19;30.70;25.70
65072;DHT22;51663;52.310;17.016;2023-05-07T10:54:25;30.10;25.70
65072;DHT22;51663;52.310;17.016;2023-05-07T10:57:35;30.20;26.10
65072;DHT22;51663;52.310;17.016;2023-05-07T11:04:16;30.60;25.70
65072;DHT22;51663;52.310;17.016;2023-05-07T11:07:29;30.60;25.90
65072;DHT22;51663;52.310;17.016;2023-05-07T11:10:54;31.10;25.50
65072;DHT22;51663;52.310;17.016;2023-05-07T11:14:05;31.10;25.40
65072;DHT22;51663;52.310;17.016;2023-05-07T11:17:10;30.70;25.70
65072;DHT22;51663;52.310;17.016;2023-05-07T11:24:19;31.40;24.60
65072;DHT22;51663;52.310;17.016;2023-05-07T11:27:33;31.10;25.10
65072;DHT22;51663;52.310;17.016;2023-05-07T11:30:45;31.20;24.80
65072;DHT22;51663;52.310;17.016;2023-05-07T11:34:29;31.40;24.50
65072;DHT22;51663;52.310;17.016;2023-05-07T11:38:55;30.60;26.00
65072;DHT22;51663;52.310;17.016;2023-05-07T11:42:27;30.60;26.20
65072;DHT22;51663;52.310;17.016;2023-05-07T11:46:20;30.30;25.90
65072;DHT22;51663;52.310;17.016;2023-05-07T11:49:26;30.90;25.40
65072;DHT22;51663;52.310;17.016;2023-05-07T11:52:30;31.10;25.00
65072;DHT22;51663;52.310;17.016;2023-05-07T11:55:34;30.80;25.40
65072;DHT22;51663;52.310;17.016;2023-05-07T11:58:48;31.20;24.90
65072;DHT22;51663;52.310;17.016;2023-05-07T12:01:57;31.20;25.10
65072;DHT22;51663;52.310;17.016;2023-05-07T12:05:19;31.60;24.50
65072;DHT22;51663;52.310;17.016;2023-05-07T12:08:22;31.70;24.60
65072;DHT22;51663;52.310;17.016;2023-05-07T12:11:26;31.60;24.10
65072;DHT22;51663;52.310;17.016;2023-05-07T12:14:29;31.40;24.00
65072;DHT22;51663;52.310;17.016;2023-05-07T12:17:32;30.90;25.30
65072;DHT22;51663;52.310;17.016;2023-05-07T12:20:36;30.40;25.10
65072;DHT22;51663;52.310;17.016;2023-05-07T12:23:39;30.20;25.50
65072;DHT22;51663;52.310;17.016;2023-05-07T12:26:41;30.00;25.90
65072;DHT22;51663;52.310;17.016;2023-05-07T12:30:05;30.70;25.50
65072;DHT22;51663;52.310;17.016;2023-05-07T12:33:17;31.00;25.00
65072;DHT22;51663;52.310;17.016;2023-05-07T12:36:20;30.80;25.00
65072;DHT22;51663;52.310;17.016;2023-05-07T12:39:23;30.80;25.60
65072;DHT22;51663;52.310;17.016;2023-05-07T12:42:25;31.40;24.70
65072;DHT22;51663;52.310;17.016;2023-05-07T12:45:31;31.60;24.50
65072;DHT22;51663;52.310;17.016;2023-05-07T12:48:46;31.10;24.40
65072;DHT22;51663;52.310;17.016;2023-05-07T12:52:25;31.10;24.80
65072;DHT22;51663;52.310;17.016;2023-05-07T12:55:46;30.80;25.20
65072;DHT22;51663;52.310;17.016;2023-05-07T12:58:59;30.50;25.60
65072;DHT22;51663;52.310;17.016;2023-05-07T13:02:02;30.90;25.20
65072;DHT22;51663;52.310;17.016;2023-05-07T13:05:04;31.50;25.30
65072;DHT22;51663;52.310;17.016;2023-05-07T13:08:09;32.10;24.80
65072;DHT22;51663;52.310;17.016;2023-05-07T13:11:12;32.10;24.30
65072;DHT22;51663;52.310;17.016;2023-05-07T13:14:17;32.00;24.00
65072;DHT22;51663;52.310;17.016;2023-05-07T13:17:44;31.90;24.30
65072;DHT22;51663;52.310;17.016;2023-05-07T13:20:55;31.70;24.40
65072;DHT22;51663;52.310;17.016;2023-05-07T13:24:02;31.90;24.40
65072;DHT22;51663;52.310;17.016;2023-05-07T13:27:05;31.70;24.20
65072;DHT22;51663;52.310;17.016;2023-05-07T13:30:07;32.10;24.10
65072;DHT22;51663;52.310;17.016;2023-05-07T13:33:09;32.50;23.90
65072;DHT22;51663;52.310;17.016;2023-05-07T13:36:13;32.30;23.90
65072;DHT22;51663;52.310;17.016;2023-05-07T13:39:18;32.20;23.60
65072;DHT22;51663;52.310;17.016;2023-05-07T13:42:21;31.80;23.90
65072;DHT22;51663;52.310;17.016;2023-05-07T13:49:25;32.50;23.70
65072;DHT22;51663;52.310;17.016;2023-05-07T13:52:38;32.70;23.50
65072;DHT22;51663;52.310;17.016;2023-05-07T13:55:42;32.30;23.00
65072;DHT22;51663;52.310;17.016;2023-05-07T13:58:44;32.40;23.70
65072;DHT22;51663;52.310;17.016;2023-05-07T14:02:01;32.90;23.30
65072;DHT22;51663;52.310;17.016;2023-05-07T14:05:18;33.10;22.80
65072;DHT22;51663;52.310;17.016;2023-05-07T14:08:27;32.90;23.00
65072;DHT22;51663;52.310;17.016;2023-05-07T14:11:34;33.10;22.90
65072;DHT22;51663;52.310;17.016;2023-05-07T14:14:37;32.90;22.60
65072;DHT22;51663;52.310;17.016;2023-05-07T14:17:39;32.70;22.60
65072;DHT22;51663;52.310;17.016;2023-05-07T14:20:50;32.40;23.00
65072;DHT22;51663;52.310;17.016;2023-05-07T14:23:54;32.80;23.00
65072;DHT22;51663;52.310;17.016;2023-05-07T14:26:58;32.90;22.90
65072;DHT22;51663;52.310;17.016;2023-05-07T14:30:01;32.90;22.60
65072;DHT22;51663;52.310;17.016;2023-05-07T14:33:06;32.80;22.90
65072;DHT22;51663;52.310;17.016;2023-05-07T14:36:09;32.80;22.90
65072;DHT22;51663;52.310;17.016;2023-05-07T14:39:14;32.60;23.00
65072;DHT22;51663;52.310;17.016;2023-05-07T14:46:08;32.80;23.30
65072;DHT22;51663;52.310;17.016;2023-05-07T14:49:17;32.80;22.60
65072;DHT22;51663;52.310;17.016;2023-05-07T14:52:37;32.70;22.10
65072;DHT22;51663;52.310;17.016;2023-05-07T14:55:47;32.70;22.20
65072;DHT22;51663;52.310;17.016;2023-05-07T14:58:50;32.50;22.40
65072;DHT22;51663;52.310;17.016;2023-05-07T15:02:10;32.90;22.40
65072;DHT22;51663;52.310;17.016;2023-05-07T15:05:37;32.00;23.10
65072;DHT22;51663;52.310;17.016;2023-05-07T15:08:58;32.50;23.10
65072;DHT22;51663;52.310;17.016;2023-05-07T15:12:13;32.40;22.80
65072;DHT22;51663;52.310;17.016;2023-05-07T15:15:15;32.20;22.90
65072;DHT22;51663;52.310;17.016;2023-05-07T15:18:17;32.40;22.50
65072;DHT22;51663;52.310;17.016;2023-05-07T15:21:23;32.20;22.10
65072;DHT22;51663;52.310;17.016;2023-05-07T15:24:26;31.90;21.70
65072;DHT22;51663;52.310;17.016;2023-05-07T15:27:30;32.20;21.90
65072;DHT22;51663;52.310;17.016;2023-05-07T15:30:35;32.30;21.50
65072;DHT22;51663;52.310;17.016;2023-05-07T15:33:56;32.00;22.30
65072;DHT22;51663;52.310;17.016;2023-05-07T15:37:09;31.60;22.00
65072;DHT22;51663;52.310;17.016;2023-05-07T15:44:52;31.30;22.40
65072;DHT22;51663;52.310;17.016;2023-05-07T15:48:09;31.30;22.90
65072;DHT22;51663;52.310;17.016;2023-05-07T15:51:41;31.00;23.70
65072;DHT22;51663;52.310;17.016;2023-05-07T15:55:22;31.20;23.70
65072;DHT22;51663;52.310;17.016;2023-05-07T15:58:35;31.50;24.20
65072;DHT22;51663;52.310;17.016;2023-05-07T16:01:50;31.50;23.40
65072;DHT22;51663;52.310;17.016;2023-05-07T16:05:02;32.10;23.20
65072;DHT22;51663;52.310;17.016;2023-05-07T16:08:19;32.40;23.00
65072;DHT22;51663;52.310;17.016;2023-05-07T16:11:44;32.60;22.70
65072;DHT22;51663;52.310;17.016;2023-05-07T16:15:23;32.20;22.40
65072;DHT22;51663;52.310;17.016;2023-05-07T16:19:02;31.70;22.70
65072;DHT22;51663;52.310;17.016;2023-05-07T16:22:10;31.70;22.90
65072;DHT22;51663;52.310;17.016;2023-05-07T16:25:49;31.40;22.60
65072;DHT22;51663;52.310;17.016;2023-05-07T16:29:02;31.10;23.20
65072;DHT22;51663;52.310;17.016;2023-05-07T16:37:08;32.00;23.10
65072;DHT22;51663;52.310;17.016;2023-05-07T16:40:11;32.60;22.50
65072;DHT22;51663;52.310;17.016;2023-05-07T16:43:15;32.40;22.30
65072;DHT22;51663;52.310;17.016;2023-05-07T16:46:17;32.40;22.40
65072;DHT22;51663;52.310;17.016;2023-05-07T16:49:23;32.30;22.40
65072;DHT22;51663;52.310;17.016;2023-05-07T16:52:27;31.80;22.30
65072;DHT22;51663;52.310;17.016;2023-05-07T16:55:40;31.70;22.40
65072;DHT22;51663;52.310;17.016;2023-05-07T16:58:50;31.20;22.70
65072;DHT22;51663;52.310;17.016;2023-05-07T17:01:55;30.80;23.00
65072;DHT22;51663;52.310;17.016;2023-05-07T17:05:15;31.30;23.00
65072;DHT22;51663;52.310;17.016;2023-05-07T17:08:40;31.40;23.00
65072;DHT22;51663;52.310;17.016;2023-05-07T17:12:08;31.30;23.10
65072;DHT22;51663;52.310;17.016;2023-05-07T17:15:32;31.40;23.20
65072;DHT22;51663;52.310;17.016;2023-05-07T17:18:47;31.60;23.20
65072;DHT22;51663;52.310;17.016;2023-05-07T17:21:52;31.70;23.40
65072;DHT22;51663;52.310;17.016;2023-05-07T17:24:56;31.90;23.50
65072;DHT22;51663;52.310;17.016;2023-05-07T17:28:01;31.80;23.50
65072;DHT22;51663;52.310;17.016;2023-05-07T17:31:51;31.90;23.60
65072;DHT22;51663;52.310;17.016;2023-05-07T17:35:51;31.90;23.70
65072;DHT22;51663;52.310;17.016;2023-05-07T17:39:48;32.10;23.40
65072;DHT22;51663;52.310;17.016;2023-05-07T17:47:41;32.10;23.00
65072;DHT22;51663;52.310;17.016;2023-05-07T17:51:48;32.20;23.10
65072;DHT22;51663;52.310;17.016;2023-05-07T17:55:42;32.00;23.20
65072;DHT22;51663;52.310;17.016;2023-05-07T18:03:56;32.20;23.00
65072;DHT22;51663;52.310;17.016;2023-05-07T18:07:11;32.20;23.10
65072;DHT22;51663;52.310;17.016;2023-05-07T18:10:59;32.20;23.10
65072;DHT22;51663;52.310;17.016;2023-05-07T18:14:04;32.30;23.30
65072;DHT22;51663;52.310;17.016;2023-05-07T18:17:32;32.30;23.10
65072;DHT22;51663;52.310;17.016;2023-05-07T18:20:34;32.20;23.40
65072;DHT22;51663;52.310;17.016;2023-05-07T18:23:38;32.20;23.20
65072;DHT22;51663;52.310;17.016;2023-05-07T18:26:40;32.20;24.10
65072;DHT22;51663;52.310;17.016;2023-05-07T18:29:44;32.20;24.20
65072;DHT22;51663;52.310;17.016;2023-05-07T18:32:47;32.10;23.80
65072;DHT22;51663;52.310;17.016;2023-05-07T18:35:50;32.00;24.40
65072;DHT22;51663;52.310;17.016;2023-05-07T18:38:52;31.90;24.20
65072;DHT22;51663;52.310;17.016;2023-05-07T18:41:55;31.80;24.70
65072;DHT22;51663;52.310;17.016;2023-05-07T18:44:58;31.70;24.70
65072;DHT22;51663;52.310;17.016;2023-05-07T18:48:00;31.60;24.60
65072;DHT22;51663;52.310;17.016;2023-05-07T18:51:03;31.60;25.10
65072;DHT22;51663;52.310;17.016;2023-05-07T18:54:06;31.50;24.80
65072;DHT22;51663;52.310;17.016;2023-05-07T18:57:08;31.30;24.40
65072;DHT22;51663;52.310;17.016;2023-05-07T19:00:11;31.30;25.00
65072;DHT22;51663;52.310;17.016;2023-05-07T19:03:14;31.30;24.90
65072;DHT22;51663;52.310;17.016;2023-05-07T19:06:18;31.20;25.20
65072;DHT22;51663;52.310;17.016;2023-05-07T19:09:22;31.10;25.20
65072;DHT22;51663;52.310;17.016;2023-05-07T19:12:24;30.90;24.80
65072;DHT22;51663;52.310;17.016;2023-05-07T19:15:26;30.80;25.10
65072;DHT22;51663;52.310;17.016;2023-05-07T19:18:29;30.60;25.20
65072;DHT22;51663;52.310;17.016;2023-05-07T19:21:32;30.60;25.30
65072;DHT22;51663;52.310;17.016;2023-05-07T19:24:35;30.60;25.80
65072;DHT22;51663;52.310;17.016;2023-05-07T19:27:38;30.60;25.50
65072;DHT22;51663;52.310;17.016;2023-05-07T19:30:41;30.60;25.50
65072;DHT22;51663;52.310;17.016;2023-05-07T19:33:43;30.60;25.60
65072;DHT22;51663;52.310;17.016;2023-05-07T19:36:46;30.70;25.60
65072;DHT22;51663;52.310;17.016;2023-05-07T19:39:48;30.70;25.60
65072;DHT22;51663;52.310;17.016;2023-05-07T19:42:51;30.60;25.70
65072;DHT22;51663;52.310;17.016;2023-05-07T19:45:53;30.50;25.90
65072;DHT22;51663;52.310;17.016;2023-05-07T19:48:56;30.50;25.80
65072;DHT22;51663;52.310;17.016;2023-05-07T19:51:58;30.50;25.90
65072;DHT22;51663;52.310;17.016;2023-05-07T19:55:00;30.60;25.80
65072;DHT22;51663;52.310;17.016;2023-05-07T19:58:02;30.60;25.80
65072;DHT22;51663;52.310;17.016;2023-05-07T20:01:05;30.60;25.70
65072;DHT22;51663;52.310;17.016;2023-05-07T20:04:07;30.60;25.70
65072;DHT22;51663;52.310;17.016;2023-05-07T20:07:10;30.50;25.80
65072;DHT22;51663;52.310;17.016;2023-05-07T20:10:12;30.50;25.80
65072;DHT22;51663;52.310;17.016;2023-05-07T20:13:15;30.40;25.80
65072;DHT22;51663;52.310;17.016;2023-05-07T20:16:18;30.30;25.80
65072;DHT22;51663;52.310;17.016;2023-05-07T20:19:20;30.30;25.90
65072;DHT22;51663;52.310;17.016;2023-05-07T20:22:24;30.20;25.90
65072;DHT22;51663;52.310;17.016;2023-05-07T20:25:30;30.10;25.70
65072;DHT22;51663;52.310;17.016;2023-05-07T20:28:35;30.00;25.80
65072;DHT22;51663;52.310;17.016;2023-05-07T20:31:38;30.00;25.90
65072;DHT22;51663;52.310;17.016;2023-05-07T20:34:40;29.90;25.80
65072;DHT22;51663;52.310;17.016;2023-05-07T20:37:43;29.80;25.80
65072;DHT22;51663;52.310;17.016;2023-05-07T20:40:45;29.80;25.90
65072;DHT22;51663;52.310;17.016;2023-05-07T20:43:47;29.80;25.80
65072;DHT22;51663;52.310;17.016;2023-05-07T20:46:49;29.70;25.80
65072;DHT22;51663;52.310;17.016;2023-05-07T20:49:53;29.70;25.70
65072;DHT22;51663;52.310;17.016;2023-05-07T20:52:55;29.70;25.80
65072;DHT22;51663;52.310;17.016;2023-05-07T20:55:58;29.60;25.90
65072;DHT22;51663;52.310;17.016;2023-05-07T20:59:00;29.60;25.90
65072;DHT22;51663;52.310;17.016;2023-05-07T21:02:15;29.50;26.10
65072;DHT22;51663;52.310;17.016;2023-05-07T21:05:34;29.40;26.00
65072;DHT22;51663;52.310;17.016;2023-05-07T21:08:37;29.40;26.30
65072;DHT22;51663;52.310;17.016;2023-05-07T21:11:39;29.40;25.90
65072;DHT22;51663;52.310;17.016;2023-05-07T21:14:42;29.30;26.10
65072;DHT22;51663;52.310;17.016;2023-05-07T21:17:44;29.20;26.40
65072;DHT22;51663;52.310;17.016;2023-05-07T21:20:49;29.10;26.40
65072;DHT22;51663;52.310;17.016;2023-05-07T21:23:51;29.10;26.10
65072;DHT22;51663;52.310;17.016;2023-05-07T21:26:57;29.20;26.10
65072;DHT22;51663;52.310;17.016;2023-05-07T21:30:01;29.20;26.20
65072;DHT22;51663;52.310;17.016;2023-05-07T21:33:09;29.20;26.30
65072;DHT22;51663;52.310;17.016;2023-05-07T21:36:12;29.20;26.20
65072;DHT22;51663;52.310;17.016;2023-05-07T21:39:14;29.20;26.10
65072;DHT22;51663;52.310;17.016;2023-05-07T21:42:22;29.10;25.90
65072;DHT22;51663;52.310;17.016;2023-05-07T21:45:25;29.10;25.80
65072;DHT22;51663;52.310;17.016;2023-05-07T21:48:27;29.00;25.80
65072;DHT22;51663;52.310;17.016;2023-05-07T21:51:29;29.00;25.90
65072;DHT22;51663;52.310;17.016;2023-05-07T21:54:33;28.90;25.70
65072;DHT22;51663;52.310;17.016;2023-05-07T21:57:35;28.90;25.60
65072;DHT22;51663;52.310;17.016;2023-05-07T22:00:38;28.80;25.60
65072;DHT22;51663;52.310;17.016;2023-05-07T22:03:40;28.80;25.70
65072;DHT22;51663;52.310;17.016;2023-05-07T22:06:43;28.70;25.60
65072;DHT22;51663;52.310;17.016;2023-05-07T22:09:45;28.80;25.50
65072;DHT22;51663;52.310;17.016;2023-05-07T22:12:47;28.70;25.70
65072;DHT22;51663;52.310;17.016;2023-05-07T22:15:49;28.70;25.70
65072;DHT22;51663;52.310;17.016;2023-05-07T22:18:59;28.70;25.80
65072;DHT22;51663;52.310;17.016;2023-05-07T22:22:01;28.70;25.70
65072;DHT22;51663;52.310;17.016;2023-05-07T22:25:04;28.60;25.40
65072;DHT22;51663;52.310;17.016;2023-05-07T22:28:07;28.60;25.40
65072;DHT22;51663;52.310;17.016;2023-05-07T22:31:09;28.60;25.40
65072;DHT22;51663;52.310;17.016;2023-05-07T22:34:12;28.60;25.20
65072;DHT22;51663;52.310;17.016;2023-05-07T22:37:14;28.60;25.40
65072;DHT22;51663;52.310;17.016;2023-05-07T22:40:17;28.50;25.20
65072;DHT22;51663;52.310;17.016;2023-05-07T22:43:19;28.50;25.30
65072;DHT22;51663;52.310;17.016;2023-05-07T22:46:21;28.50;25.20
65072;DHT22;51663;52.310;17.016;2023-05-07T22:49:29;28.50;25.20
65072;DHT22;51663;52.310;17.016;2023-05-07T22:52:33;28.50;25.00
65072;DHT22;51663;52.310;17.016;2023-05-07T22:55:36;28.50;25.30
65072;DHT22;51663;52.310;17.016;2023-05-07T22:58:38;28.40;25.40
65072;DHT22;51663;52.310;17.016;2023-05-07T23:01:40;28.50;25.20
65072;DHT22;51663;52.310;17.016;2023-05-07T23:04:43;28.40;25.40
65072;DHT22;51663;52.310;17.016;2023-05-07T23:07:45;28.40;25.40
65072;DHT22;51663;52.310;17.016;2023-05-07T23:10:50;28.40;25.00
65072;DHT22;51663;52.310;17.016;2023-05-07T23:13:52;28.30;24.90
65072;DHT22;51663;52.310;17.016;2023-05-07T23:16:54;28.30;24.90
65072;DHT22;51663;52.310;17.016;2023-05-07T23:19:57;28.30;24.80
65072;DHT22;51663;52.310;17.016;2023-05-07T23:22:59;28.30;24.80
65072;DHT22;51663;52.310;17.016;2023-05-07T23:26:01;28.10;24.80
65072;DHT22;51663;52.310;17.016;2023-05-07T23:29:04;28.10;25.00
65072;DHT22;51663;52.310;17.016;2023-05-07T23:32:06;28.00;25.20
65072;DHT22;51663;52.310;17.016;2023-05-07T23:35:11;28.00;25.10
65072;DHT22;51663;52.310;17.016;2023-05-07T23:38:13;28.00;25.00
65072;DHT22;51663;52.310;17.016;2023-05-07T23:41:16;28.10;25.00
65072;DHT22;51663;52.310;17.016;2023-05-07T23:44:17;28.10;25.20
65072;DHT22;51663;52.310;17.016;2023-05-07T23:47:20;28.10;25.20
65072;DHT22;51663;52.310;17.016;2023-05-07T23:50:22;28.10;25.00
65072;DHT22;51663;52.310;17.016;2023-05-07T23:53:24;28.10;25.10